ラロトンガ の空港の天気 - METARとTAF

ラロトンガ国際空港 ( NCRG / RAR ) - クック諸島 アバルア (ラロトンガ島)
飛行場実況気象(Metar)
観測時間04/26 01:00 CKT (04/26 11:00 UTC)
風向・風速西南西 6m/s
視程10km以上
天気現象
少しの雲 雲底高度 640m
全天の8割程度の雲 雲底高度 1520m
気温25℃
湿度83%
気圧1009hPa
METARNCRG 261100Z 25011KT 9999 FEW021 BKN050 25/22 Q1009
過去の天気等 Google飛行場航空写真 Wunderground天気予報

過去48時間のMETAR

飛行場予報(TAF)
発表時間: 4/25 19:01 CKT (4/26 05:01 UTC)
予報対象時間: 25日20時 CKT ~ 26日20時 CKT
風向・風速北東 4m/s
視程10km以上
天気現象弱いしゅう雨
少しの雲 雲底高度 270m
全天の8割程度の雲 雲底高度 850m
25日20時 CKT ~ 26日5時 CKT に 確率 40% で一時的に
視程3,000m
天気現象雷雨
全天の8割程度の雲 雲底高度 460m
少しの積乱雲 雲底高度 520m
TAF NCRG 260501Z 2606/2706 04007KT 9999 -SHRA FEW009 BKN028
PROB40 TEMPO 2606/2615 3000 TSRA BKN015 FEW017CB